Time;durP1;ratioP1;P1;durP2;ratioP2;P2;SDS_P1;SDS_P2;PMS_P1;PMS_P2;Temp;Humidity;BMP_temperature;BMP_pressure;BME280_temperature;BME280_humidity;BME280_pressure;Samples;Min_cycle;Max_cycle;Signal;HPM_P1;HPM_P2
2023/03/22 00:02:29;;;;;;;8.85;3.70;;;;;;;8.13;100.00;100834.00;5285216;28;20111;-72
2023/03/22 00:05:00;;;;;;;12.15;3.53;;;;;;;8.18;100.00;100831.03;5280897;28;20085;-73
2023/03/22 00:07:32;;;;;;;10.88;3.47;;;;;;;8.15;100.00;100826.78;5281921;28;20027;-71
2023/03/22 00:10:04;;;;;;;9.77;3.92;;;;;;;8.09;100.00;100826.31;5284618;28;20383;-72
2023/03/22 00:12:36;;;;;;;9.10;3.40;;;;;;;8.10;100.00;100818.25;5281897;28;21797;-71
2023/03/22 00:15:08;;;;;;;8.00;3.17;;;;;;;8.03;100.00;100816.94;5286192;28;20465;-72
2023/03/22 00:17:40;;;;;;;8.30;3.20;;;;;;;8.08;100.00;100827.28;5281578;28;20050;-71
2023/03/22 00:20:12;;;;;;;10.68;3.45;;;;;;;8.12;100.00;100813.69;5281612;28;20039;-72
2023/03/22 00:22:43;;;;;;;13.63;3.92;;;;;;;8.01;100.00;100811.72;5285579;28;20562;-72
2023/03/22 00:25:15;;;;;;;12.38;3.45;;;;;;;8.07;100.00;100806.97;5286212;28;20028;-71
2023/03/22 00:27:46;;;;;;;10.00;3.35;;;;;;;8.03;100.00;100799.22;5278462;28;20398;-73
2023/03/22 00:30:18;;;;;;;9.57;3.58;;;;;;;8.02;100.00;100792.19;5283756;28;20644;-72
2023/03/22 00:32:49;;;;;;;9.10;3.38;;;;;;;8.02;100.00;100797.50;5281534;28;20053;-72
2023/03/22 00:35:21;;;;;;;9.18;3.50;;;;;;;7.98;100.00;100797.81;5284441;28;20462;-72
2023/03/22 00:37:52;;;;;;;8.65;3.22;;;;;;;7.96;100.00;100797.06;5285177;28;20691;-72
2023/03/22 00:40:24;;;;;;;8.90;3.65;;;;;;;7.97;100.00;100791.63;5281870;28;20147;-72
2023/03/22 00:42:55;;;;;;;13.30;4.72;;;;;;;7.95;100.00;100787.38;5283216;28;20025;-71
2023/03/22 00:45:26;;;;;;;8.30;3.72;;;;;;;7.95;100.00;100777.59;5291312;28;20071;-72
2023/03/22 00:47:58;;;;;;;8.93;3.50;;;;;;;7.98;100.00;100781.88;5283595;28;20039;-71
2023/03/22 00:50:29;;;;;;;11.02;3.70;;;;;;;7.88;100.00;100771.03;5280431;28;20033;-71
2023/03/22 00:53:01;;;;;;;9.75;3.88;;;;;;;7.91;100.00;100772.63;5281260;28;20139;-72
2023/03/22 00:55:32;;;;;;;11.65;4.22;;;;;;;7.90;100.00;100763.81;5282058;28;20110;-71
2023/03/22 00:58:04;;;;;;;12.70;4.72;;;;;;;7.92;100.00;100764.53;5283523;28;20359;-72
2023/03/22 01:00:35;;;;;;;8.68;4.20;;;;;;;7.89;100.00;100754.09;5281934;28;20375;-72
2023/03/22 01:03:07;;;;;;;11.40;4.72;;;;;;;7.92;100.00;100750.38;5280184;28;20153;-71
2023/03/22 01:05:38;;;;;;;11.68;5.47;;;;;;;7.85;100.00;100753.47;5285480;28;20115;-73
2023/03/22 01:08:13;;;;;;;9.80;5.43;;;;;;;7.87;100.00;100756.03;5287133;28;20032;-72
2023/03/22 01:10:45;;;;;;;11.60;5.80;;;;;;;7.89;100.00;100746.13;5281968;28;20029;-72
2023/03/22 01:13:17;;;;;;;14.00;6.50;;;;;;;7.92;100.00;100745.94;5280720;28;20035;-72
2023/03/22 01:15:50;;;;;;;18.52;7.00;;;;;;;7.90;100.00;100742.53;5276546;28;20028;-72
2023/03/22 01:18:22;;;;;;;12.35;7.03;;;;;;;7.93;100.00;100741.47;5279874;28;20069;-72
2023/03/22 01:20:53;;;;;;;11.98;7.22;;;;;;;7.93;100.00;100738.81;5282176;28;20130;-72
2023/03/22 01:23:25;;;;;;;14.13;8.00;;;;;;;7.94;100.00;100728.09;5286870;28;20040;-72
2023/03/22 01:25:56;;;;;;;15.77;7.93;;;;;;;7.98;100.00;100723.44;5281915;28;20032;-72
2023/03/22 01:28:28;;;;;;;12.38;7.80;;;;;;;7.93;100.00;100712.25;5278854;28;20127;-72
2023/03/22 01:31:00;;;;;;;16.38;8.20;;;;;;;8.00;100.00;100708.25;5274820;28;20498;-72
2023/03/22 01:33:32;;;;;;;13.98;8.73;;;;;;;8.03;100.00;100695.59;5274572;28;20030;-72
2023/03/22 01:36:04;;;;;;;18.48;9.40;;;;;;;8.11;100.00;100695.06;5274734;28;20024;-71
2023/03/22 01:38:35;;;;;;;15.48;8.95;;;;;;;8.12;100.00;100691.44;5274521;28;20036;-71
2023/03/22 01:41:07;;;;;;;16.10;9.35;;;;;;;8.18;100.00;100684.84;5273256;28;20039;-72
2023/03/22 01:43:38;;;;;;;14.00;9.00;;;;;;;8.26;100.00;100682.50;5273837;28;20035;-72
2023/03/22 01:46:09;;;;;;;15.20;8.95;;;;;;;8.27;100.00;100678.06;5274682;28;20028;-72
2023/03/22 01:48:44;;;;;;;20.40;10.07;;;;;;;8.30;100.00;100675.19;5273725;28;20406;-72
2023/03/22 01:51:21;;;;;;;19.40;10.43;;;;;;;8.30;100.00;100667.19;5274243;28;20036;-72
2023/03/22 01:54:01;;;;;;;18.83;10.52;;;;;;;8.32;100.00;100665.28;5276700;28;20478;-72
2023/03/22 01:56:39;;;;;;;14.23;10.27;;;;;;;8.30;100.00;100660.06;5274287;28;20039;-72
2023/03/22 01:59:14;;;;;;;19.45;10.73;;;;;;;8.36;100.00;100659.66;5276192;28;20036;-72
2023/03/22 02:01:45;;;;;;;16.67;10.18;;;;;;;8.43;100.00;100665.41;5270982;28;20111;-72
2023/03/22 02:04:22;;;;;;;16.85;10.52;;;;;;;8.44;100.00;100646.69;5277595;28;20036;-72
2023/03/22 02:06:54;;;;;;;20.48;11.32;;;;;;;8.41;100.00;100654.00;5278150;28;21585;-71
2023/03/22 02:09:28;;;;;;;15.73;10.77;;;;;;;8.54;100.00;100640.75;5283445;28;20036;-72
2023/03/22 02:12:22;;;;;;;19.20;11.50;;;;;;;8.52;100.00;100646.16;5282748;28;20024;-72
2023/03/22 02:15:32;;;;;;;18.40;11.20;;;;;;;8.47;100.00;100639.47;5274849;28;20052;-73
2023/03/22 02:18:43;;;;;;;20.25;10.82;;;;;;;8.44;100.00;100638.72;5295065;28;20082;-72
2023/03/22 02:21:38;;;;;;;16.40;11.10;;;;;;;8.48;100.00;100634.03;5233356;28;20136;-72
2023/03/22 02:24:22;;;;;;;21.67;11.35;;;;;;;8.52;100.00;100632.88;5235223;28;20037;-72
2023/03/22 02:27:21;;;;;;;17.70;11.98;;;;;;;8.52;100.00;100632.88;5278588;28;20521;-72
2023/03/22 02:30:08;;;;;;;18.83;11.90;;;;;;;8.49;100.00;100632.22;5292303;28;20341;-72
2023/03/22 02:33:04;;;;;;;19.95;11.77;;;;;;;8.57;100.00;100630.75;5274482;28;20111;-72
2023/03/22 02:35:56;;;;;;;16.02;10.43;;;;;;;8.57;100.00;100624.53;5284083;28;20024;-72
2023/03/22 02:39:18;;;;;;;17.45;11.02;;;;;;;8.61;100.00;100624.22;5289820;28;20055;-72
2023/03/22 02:41:59;;;;;;;17.52;10.45;;;;;;;8.58;100.00;100627.09;5268795;28;20037;-72
2023/03/22 02:45:00;;;;;;;14.43;9.73;;;;;;;8.62;100.00;100625.06;5259233;28;20152;-72
2023/03/22 02:47:37;;;;;;;13.32;9.90;;;;;;;8.64;100.00;100616.00;5277878;28;20032;-72
2023/03/22 02:50:20;;;;;;;16.85;10.05;;;;;;;8.64;100.00;100615.16;5285307;28;20039;-72
2023/03/22 02:52:56;;;;;;;16.20;9.80;;;;;;;8.66;100.00;100615.91;5280683;28;20429;-72
2023/03/22 02:55:36;;;;;;;18.27;9.57;;;;;;;8.69;100.00;100612.19;5285491;28;20028;-72
2023/03/22 02:58:20;;;;;;;15.40;9.02;;;;;;;8.70;100.00;100598.75;5281654;28;20482;-72
2023/03/22 03:01:00;;;;;;;14.07;8.88;;;;;;;8.75;100.00;100587.81;5279785;28;20036;-72
2023/03/22 03:03:36;;;;;;;13.32;8.38;;;;;;;8.75;100.00;100607.28;5284170;28;20087;-73
2023/03/22 03:06:12;;;;;;;12.80;8.45;;;;;;;8.74;100.00;100600.22;5283299;28;20028;-72
2023/03/22 03:08:49;;;;;;;14.35;8.10;;;;;;;8.76;100.00;100593.03;5282978;28;20024;-72
2023/03/22 03:11:21;;;;;;;14.07;8.57;;;;;;;8.77;100.00;100599.19;5278646;28;20411;-72
2023/03/22 03:13:52;;;;;;;14.10;7.75;;;;;;;8.73;100.00;100587.91;5284534;28;20024;-72
2023/03/22 03:16:28;;;;;;;12.18;7.15;;;;;;;8.78;100.00;100591.09;5282361;28;20437;-72
2023/03/22 03:19:10;;;;;;;13.82;7.55;;;;;;;8.74;100.00;100586.94;5275446;28;20115;-71
2023/03/22 03:22:00;;;;;;;11.85;7.15;;;;;;;8.78;100.00;100591.09;5283707;28;20028;-71
2023/03/22 03:24:50;;;;;;;13.52;6.95;;;;;;;8.81;100.00;100582.88;5285904;28;20036;-71
2023/03/22 03:27:36;;;;;;;11.05;7.05;;;;;;;8.75;100.00;100587.81;5284342;28;20055;-71
2023/03/22 03:30:15;;;;;;;12.98;6.18;;;;;;;8.79;100.00;100584.81;5283319;28;20016;-72
2023/03/22 03:33:02;;;;;;;10.75;5.78;;;;;;;8.77;100.00;100588.53;5279772;28;20516;-72
2023/03/22 03:35:42;;;;;;;11.60;6.13;;;;;;;8.79;100.00;100587.47;5274344;28;20036;-71
2023/03/22 03:38:19;;;;;;;8.38;6.15;;;;;;;8.76;100.00;100585.03;5275609;28;20017;-72
2023/03/22 03:40:59;;;;;;;10.35;5.45;;;;;;;8.82;100.00;100576.59;5277981;28;20031;-72
2023/03/22 03:43:32;;;;;;;11.30;5.68;;;;;;;8.73;100.00;100582.59;5276434;28;20028;-72
2023/03/22 03:46:05;;;;;;;7.95;5.45;;;;;;;8.76;100.00;100574.41;5273261;28;20036;-72
2023/03/22 03:48:41;;;;;;;12.07;5.60;;;;;;;8.78;100.00;100577.81;5274433;28;20024;-72
2023/03/22 03:51:13;;;;;;;11.02;5.07;;;;;;;8.74;100.00;100584.28;5273074;28;20540;-72
2023/03/22 03:53:45;;;;;;;10.35;5.55;;;;;;;8.70;100.00;100582.81;5272330;28;20550;-72
2023/03/22 03:56:17;;;;;;;9.73;4.78;;;;;;;8.71;100.00;100587.19;5271189;28;20043;-72
2023/03/22 03:58:48;;;;;;;9.80;4.70;;;;;;;8.73;100.00;100587.91;5274232;28;20027;-72
2023/03/22 04:01:19;;;;;;;12.32;5.72;;;;;;;8.70;100.00;100588.13;5277283;28;20045;-72
2023/03/22 04:03:54;;;;;;;8.30;4.57;;;;;;;8.66;100.00;100589.31;5275983;28;20043;-72
2023/03/22 04:06:25;;;;;;;8.20;4.53;;;;;;;8.67;100.00;100587.50;5278434;28;20024;-72
2023/03/22 04:08:57;;;;;;;9.60;4.50;;;;;;;8.57;100.00;100580.22;5277805;28;20043;-72
2023/03/22 04:11:28;;;;;;;8.50;4.28;;;;;;;8.57;100.00;100582.00;5275501;28;20027;-72
2023/03/22 04:13:59;;;;;;;9.80;5.55;;;;;;;8.56;100.00;100573.19;5277954;28;20509;-73
2023/03/22 04:16:30;;;;;;;10.00;5.07;;;;;;;8.51;100.00;100580.63;5276647;28;20127;-72
2023/03/22 04:19:02;;;;;;;9.40;4.40;;;;;;;8.50;100.00;100578.94;5274361;28;20455;-73
2023/03/22 04:21:33;;;;;;;10.85;4.30;;;;;;;8.52;100.00;100581.50;5275232;28;20179;-72
2023/03/22 04:24:05;;;;;;;10.18;4.32;;;;;;;8.49;100.00;100569.25;5276301;28;20111;-72
2023/03/22 04:26:37;;;;;;;8.13;3.65;;;;;;;8.47;100.00;100573.84;5276196;28;20053;-72
2023/03/22 04:29:08;;;;;;;8.68;4.13;;;;;;;8.43;100.00;100567.88;5276028;28;20028;-72
2023/03/22 04:31:40;;;;;;;11.30;4.80;;;;;;;8.45;100.00;100565.13;5273121;28;20516;-72
2023/03/22 04:34:11;;;;;;;11.35;4.60;;;;;;;8.46;100.00;100563.31;5274165;28;20551;-72
2023/03/22 04:36:44;;;;;;;10.60;4.47;;;;;;;8.42;100.00;100563.56;5275326;28;20046;-72
2023/03/22 04:39:15;;;;;;;12.23;4.60;;;;;;;8.38;100.00;100556.72;5279433;28;20038;-73
2023/03/22 04:41:46;;;;;;;10.55;4.88;;;;;;;8.41;100.00;100559.19;5283102;28;20036;-72
2023/03/22 04:44:18;;;;;;;9.95;4.30;;;;;;;8.41;100.00;100556.53;5282349;28;20051;-72
2023/03/22 04:46:50;;;;;;;12.90;4.20;;;;;;;8.38;100.00;100562.03;5281168;28;20028;-72
2023/03/22 04:49:21;;;;;;;9.68;4.80;;;;;;;8.37;100.00;100565.66;5285317;28;20086;-72
2023/03/22 04:51:54;;;;;;;8.63;4.40;;;;;;;8.36;100.00;100561.31;5280708;28;20131;-72
2023/03/22 04:54:25;;;;;;;11.05;4.00;;;;;;;8.35;100.00;100551.63;5280227;28;20043;-72
2023/03/22 04:56:57;;;;;;;10.45;4.82;;;;;;;8.36;100.00;100553.34;5281563;28;21708;-72
2023/03/22 04:59:29;;;;;;;11.43;5.15;;;;;;;8.35;100.00;100564.06;5278401;28;20459;-72
2023/03/22 05:02:00;;;;;;;13.38;4.22;;;;;;;8.40;100.00;100553.97;5278215;28;20043;-72
2023/03/22 05:04:31;;;;;;;9.95;3.95;;;;;;;8.42;100.00;100558.22;5284154;28;20031;-72
2023/03/22 05:07:03;;;;;;;9.85;3.90;;;;;;;8.41;100.00;100552.97;5277725;28;20035;-72
2023/03/22 05:09:34;;;;;;;13.35;4.30;;;;;;;8.42;100.00;100550.25;5281333;28;20039;-72
2023/03/22 05:12:06;;;;;;;8.50;3.88;;;;;;;8.39;100.00;100542.47;5275956;28;20118;-72
2023/03/22 05:14:37;;;;;;;10.30;3.88;;;;;;;8.46;100.00;100550.88;5281095;28;20035;-72
2023/03/22 05:17:09;;;;;;;10.07;4.30;;;;;;;8.54;100.00;100550.31;5275737;28;20034;-72
2023/03/22 05:19:41;;;;;;;14.63;4.50;;;;;;;8.46;100.00;100542.03;5281071;28;20032;-72
2023/03/22 05:22:12;;;;;;;9.45;3.65;;;;;;;8.42;100.00;100536.13;5283565;28;20367;-72
2023/03/22 05:24:44;;;;;;;11.75;4.07;;;;;;;8.47;100.00;100541.09;5285248;28;20406;-72
2023/03/22 05:27:15;;;;;;;10.73;3.70;;;;;;;8.40;100.00;100546.00;5284129;28;20485;-72
2023/03/22 05:29:48;;;;;;;9.48;3.65;;;;;;;8.42;100.00;100547.59;5282636;28;20028;-72
2023/03/22 05:32:24;;;;;;;9.20;3.50;;;;;;;8.46;100.00;100547.34;5279939;28;20036;-72
2023/03/22 05:34:55;;;;;;;8.15;3.33;;;;;;;8.40;100.00;100549.50;5280261;28;20123;-72
2023/03/22 05:37:28;;;;;;;9.60;3.15;;;;;;;8.39;100.00;100546.94;5277280;28;20085;-74
2023/03/22 05:40:00;;;;;;;8.90;3.35;;;;;;;8.38;100.00;100538.13;5279216;28;20071;-72
2023/03/22 05:42:31;;;;;;;10.18;3.55;;;;;;;8.43;100.00;100532.47;5278351;28;20024;-72
2023/03/22 05:45:03;;;;;;;7.05;3.30;;;;;;;8.36;100.00;100542.69;5277267;28;20117;-72
2023/03/22 05:47:35;;;;;;;11.10;3.25;;;;;;;8.40;100.00;100530.88;5278754;28;20036;-72
2023/03/22 05:50:08;;;;;;;17.80;3.75;;;;;;;8.41;100.00;100537.91;5280046;28;20051;-72
2023/03/22 05:52:41;;;;;;;7.82;3.28;;;;;;;8.38;100.00;100543.44;5285991;28;20028;-73
2023/03/22 05:55:16;;;;;;;9.90;3.63;;;;;;;8.39;100.00;100547.78;5283573;28;20031;-72
2023/03/22 05:57:50;;;;;;;11.55;3.10;;;;;;;8.36;100.00;100540.03;5280808;28;20407;-72
2023/03/22 06:00:22;;;;;;;8.10;3.00;;;;;;;8.40;100.00;100551.31;5290097;28;20147;-73
2023/03/22 06:02:59;;;;;;;7.38;2.95;;;;;;;8.40;100.00;100546.00;5278701;28;20381;-73
2023/03/22 06:05:31;;;;;;;6.63;2.55;;;;;;;8.39;100.00;100536.31;5277291;28;20093;-72
2023/03/22 06:08:03;;;;;;;8.77;2.92;;;;;;;8.43;100.00;100537.81;5288163;28;20039;-72
2023/03/22 06:10:34;;;;;;;9.57;3.15;;;;;;;8.44;100.00;100539.50;5275870;28;20519;-72
2023/03/22 06:13:06;;;;;;;8.07;3.00;;;;;;;8.44;100.00;100544.84;5278106;28;20036;-72
2023/03/22 06:15:37;;;;;;;8.77;3.40;;;;;;;8.48;100.00;100529.50;5276334;28;20040;-72
2023/03/22 06:18:08;;;;;;;8.48;2.97;;;;;;;8.50;100.00;100536.41;5276426;28;20028;-72
2023/03/22 06:20:40;;;;;;;10.82;3.30;;;;;;;8.53;100.00;100538.81;5278989;28;20485;-72
2023/03/22 06:23:11;;;;;;;9.93;3.25;;;;;;;8.52;100.00;100539.81;5282527;28;20016;-72
2023/03/22 06:25:44;;;;;;;9.02;3.05;;;;;;;8.57;100.00;100534.13;5281271;28;20028;-72
2023/03/22 06:28:15;;;;;;;7.55;3.30;;;;;;;8.60;100.00;100537.41;5284062;28;20054;-72
2023/03/22 06:30:47;;;;;;;10.43;3.30;;;;;;;8.62;100.00;100537.31;5276299;28;20024;-72
2023/03/22 06:33:18;;;;;;;7.50;3.17;;;;;;;8.68;100.00;100536.00;5282929;28;20032;-72
2023/03/22 06:35:49;;;;;;;10.27;3.13;;;;;;;8.71;100.00;100533.97;5278511;28;20029;-72
2023/03/22 06:38:21;;;;;;;7.68;3.00;;;;;;;8.77;100.00;100530.88;5281180;28;20039;-73
2023/03/22 06:40:52;;;;;;;9.90;3.60;;;;;;;8.79;100.00;100534.25;5279644;28;20036;-72
2023/03/22 06:43:24;;;;;;;11.52;3.58;;;;;;;8.83;100.00;100541.03;5275667;28;20023;-72
2023/03/22 06:45:56;;;;;;;12.38;4.00;;;;;;;8.90;100.00;100541.44;5278317;28;20027;-72
2023/03/22 06:48:27;;;;;;;11.63;3.92;;;;;;;8.93;100.00;100553.66;5283272;28;20451;-72
2023/03/22 06:50:59;;;;;;;10.48;4.57;;;;;;;8.99;100.00;100547.88;5281791;28;20475;-72
2023/03/22 06:53:30;;;;;;;8.75;3.95;;;;;;;9.02;100.00;100542.34;5276713;28;20056;-72
2023/03/22 06:56:02;;;;;;;10.30;4.22;;;;;;;9.13;100.00;100545.06;5282445;28;20115;-72
2023/03/22 06:58:34;;;;;;;12.50;4.50;;;;;;;9.23;100.00;100530.06;5279526;28;20444;-72
2023/03/22 07:01:05;;;;;;;13.20;4.38;;;;;;;9.31;100.00;100534.81;5281338;28;20530;-72
2023/03/22 07:03:37;;;;;;;11.57;3.65;;;;;;;9.40;100.00;100535.94;5278994;28;20036;-72
2023/03/22 07:06:12;;;;;;;10.02;3.85;;;;;;;9.45;100.00;100532.91;5280974;28;20119;-72
2023/03/22 07:08:43;;;;;;;10.55;4.45;;;;;;;9.52;100.00;100537.66;5278855;28;20138;-72
2023/03/22 07:11:14;;;;;;;10.85;4.40;;;;;;;9.56;100.00;100535.59;5278439;28;20355;-72
2023/03/22 07:13:46;;;;;;;10.75;3.58;;;;;;;9.53;100.00;100533.16;5276189;28;20035;-73
2023/03/22 07:16:17;;;;;;;9.57;3.40;;;;;;;9.61;100.00;100526.28;5284781;28;20028;-72
2023/03/22 07:18:49;;;;;;;9.13;3.88;;;;;;;9.60;100.00;100529.06;5276432;28;20023;-72
2023/03/22 07:21:20;;;;;;;9.80;4.55;;;;;;;9.62;100.00;100529.78;5280069;28;20028;-73
2023/03/22 07:23:52;;;;;;;16.17;5.10;;;;;;;9.67;100.00;100532.13;5302172;28;20461;-72
2023/03/22 07:26:25;;;;;;;15.75;4.82;;;;;;;9.70;100.00;100527.38;5292293;28;20048;-72
2023/03/22 07:28:56;;;;;;;11.88;4.85;;;;;;;9.78;100.00;100543.63;5290803;28;20103;-73
2023/03/22 07:31:28;;;;;;;11.98;4.85;;;;;;;9.89;100.00;100533.94;5276090;28;20028;-72
2023/03/22 07:34:02;;;;;;;12.20;4.90;;;;;;;9.87;100.00;100544.72;5277464;28;20052;-73
2023/03/22 07:36:33;;;;;;;10.68;4.45;;;;;;;9.95;100.00;100546.75;5274159;28;20059;-72
2023/03/22 07:39:05;;;;;;;12.43;4.88;;;;;;;10.00;100.00;100541.94;5277720;28;20028;-73
2023/03/22 07:41:36;;;;;;;10.70;4.82;;;;;;;10.08;100.00;100544.00;5274314;28;20405;-72
2023/03/22 07:44:07;;;;;;;10.85;4.05;;;;;;;10.12;100.00;100542.78;5282927;28;20520;-73
2023/03/22 07:46:39;;;;;;;11.57;4.55;;;;;;;10.16;100.00;100536.22;5284389;28;20028;-72
2023/03/22 07:49:11;;;;;;;7.32;3.55;;;;;;;10.23;100.00;100540.09;5287247;28;20116;-73
2023/03/22 07:51:42;;;;;;;11.00;4.45;;;;;;;10.34;100.00;100549.94;5282450;28;20031;-73
2023/03/22 07:54:13;;;;;;;10.57;4.63;;;;;;;10.40;100.00;100538.78;5291298;28;20032;-72
2023/03/22 07:56:46;;;;;;;10.77;4.47;;;;;;;10.48;100.00;100544.34;5286231;28;20432;-73
2023/03/22 07:59:18;;;;;;;9.80;3.40;;;;;;;10.53;100.00;100530.66;5290819;28;20119;-72
2023/03/22 08:01:49;;;;;;;10.07;3.05;;;;;;;10.58;100.00;100545.31;5288670;28;20466;-72
2023/03/22 08:04:21;;;;;;;6.70;2.97;;;;;;;10.60;100.00;100542.50;5291319;28;20256;-74
2023/03/22 08:06:57;;;;;;;13.63;2.88;;;;;;;10.63;100.00;100544.91;5283760;28;20025;-73
2023/03/22 08:09:28;;;;;;;9.52;3.05;;;;;;;10.64;100.00;100543.09;5280009;28;20078;-73
2023/03/22 08:12:00;;;;;;;12.57;3.85;;;;;;;10.67;100.00;100545.53;5291572;28;20036;-72
2023/03/22 08:14:31;;;;;;;7.15;2.40;;;;;;;10.72;100.00;100538.84;5281739;28;20035;-73
2023/03/22 08:17:04;;;;;;;9.40;3.17;;;;;;;10.73;100.00;100553.84;5287482;28;20048;-73
2023/03/22 08:19:35;;;;;;;10.38;3.13;;;;;;;10.79;100.00;100540.00;5282658;28;20036;-73
2023/03/22 08:22:07;;;;;;;8.50;2.22;;;;;;;10.81;100.00;100542.53;5281501;28;20036;-73
2023/03/22 08:24:39;;;;;;;7.18;2.28;;;;;;;10.85;100.00;100543.16;5277432;28;20051;-73
2023/03/22 08:27:11;;;;;;;8.82;2.30;;;;;;;10.90;100.00;100540.97;5281246;28;20048;-73
2023/03/22 08:29:42;;;;;;;7.90;2.70;;;;;;;10.96;100.00;100532.44;5288769;28;21459;-73
2023/03/22 08:32:15;;;;;;;9.55;2.58;;;;;;;11.03;100.00;100546.97;5284608;28;20414;-73
2023/03/22 08:34:46;;;;;;;10.57;2.70;;;;;;;11.07;100.00;100537.72;5295614;28;20008;-73
2023/03/22 08:37:21;;;;;;;10.55;2.30;;;;;;;11.16;100.00;100528.94;5291783;28;20088;-73
2023/03/22 08:39:52;;;;;;;9.07;2.20;;;;;;;11.24;100.00;100527.44;5287960;28;20072;-73
2023/03/22 08:42:24;;;;;;;8.40;2.30;;;;;;;11.27;100.00;100520.00;5284876;28;20048;-73
2023/03/22 08:44:55;;;;;;;8.18;2.22;;;;;;;11.32;100.00;100524.97;5287810;28;20383;-73
2023/03/22 08:47:26;;;;;;;10.07;2.40;;;;;;;11.36;100.00;100521.06;5281102;28;20042;-72
2023/03/22 08:49:58;;;;;;;9.07;2.67;;;;;;;11.41;100.00;100526.88;5290643;28;20021;-73
2023/03/22 08:52:29;;;;;;;7.50;2.45;;;;;;;11.46;100.00;100524.63;5299545;28;20023;-73
2023/03/22 08:55:02;;;;;;;6.78;2.10;;;;;;;11.54;100.00;100534.66;5298103;28;20017;-73
2023/03/22 08:57:34;;;;;;;11.57;2.97;;;;;;;11.58;100.00;100531.63;5283101;28;20515;-73
2023/03/22 09:00:06;;;;;;;6.15;2.00;;;;;;;11.60;100.00;100527.94;5288436;28;20036;-72
2023/03/22 09:02:37;;;;;;;11.00;2.38;;;;;;;11.65;100.00;100518.56;5293858;28;20062;-72
2023/03/22 09:05:09;;;;;;;7.18;2.20;;;;;;;11.71;100.00;100522.53;5297725;28;20032;-72
2023/03/22 09:07:40;;;;;;;6.55;2.00;;;;;;;11.73;100.00;100521.41;5292320;28;20028;-73
2023/03/22 09:10:12;;;;;;;8.40;1.90;;;;;;;11.79;100.00;100514.69;5290297;28;20021;-73
2023/03/22 09:12:43;;;;;;;7.15;2.17;;;;;;;11.81;100.00;100520.75;5290585;28;20193;-72
2023/03/22 09:15:14;;;;;;;7.03;2.17;;;;;;;11.82;100.00;100506.41;5296771;28;20027;-72
2023/03/22 09:17:46;;;;;;;10.98;2.13;;;;;;;11.87;100.00;100522.03;5293630;28;20063;-72
2023/03/22 09:20:17;;;;;;;12.32;2.83;;;;;;;11.94;100.00;100515.22;5284519;28;20024;-72
2023/03/22 09:22:49;;;;;;;8.43;2.53;;;;;;;12.00;100.00;100500.47;5289318;28;20024;-72
2023/03/22 09:25:21;;;;;;;8.10;1.98;;;;;;;12.05;100.00;100508.94;5288729;28;20035;-72
2023/03/22 09:27:52;;;;;;;6.78;1.95;;;;;;;12.12;100.00;100518.97;5286872;28;20567;-72
2023/03/22 09:30:24;;;;;;;7.40;1.73;;;;;;;12.14;100.00;100508.97;5287331;28;20474;-72
2023/03/22 09:32:55;;;;;;;8.85;2.08;;;;;;;12.20;100.00;100506.75;5293978;28;20547;-73
2023/03/22 09:35:26;;;;;;;6.65;2.15;;;;;;;12.23;100.00;100504.63;5280268;28;20414;-72
2023/03/22 09:37:58;;;;;;;9.52;1.80;;;;;;;12.25;100.00;100509.84;5281457;28;20078;-72
2023/03/22 09:40:32;;;;;;;10.70;2.25;;;;;;;12.23;100.00;100506.44;5284777;28;20435;-72
2023/03/22 09:43:07;;;;;;;7.70;2.00;;;;;;;12.22;100.00;100502.94;5293105;28;20032;-72
2023/03/22 09:45:47;;;;;;;9.27;1.77;;;;;;;12.19;100.00;100494.34;5285212;28;20437;-72
2023/03/22 09:48:29;;;;;;;6.90;2.25;;;;;;;12.19;100.00;100503.19;5276645;28;20806;-72
2023/03/22 09:51:03;;;;;;;8.80;2.10;;;;;;;12.14;100.00;100506.28;5286914;28;20027;-72
2023/03/22 09:53:34;;;;;;;9.52;2.00;;;;;;;12.10;100.00;100504.88;5284037;28;20063;-72
2023/03/22 09:56:13;;;;;;;8.55;2.13;;;;;;;12.10;100.00;100506.69;5295192;28;20514;-73
2023/03/22 09:58:56;;;;;;;6.78;1.55;;;;;;;12.05;100.00;100500.91;5283791;28;20029;-72
2023/03/22 10:01:34;;;;;;;10.93;2.10;;;;;;;12.00;100.00;100500.47;5284731;28;20068;-72
2023/03/22 10:04:21;;;;;;;8.65;2.03;;;;;;;11.98;100.00;100505.94;5286313;28;20606;-72
2023/03/22 10:07:05;;;;;;;6.78;1.70;;;;;;;11.93;100.00;100498.34;5293367;28;20286;-72
2023/03/22 10:09:56;;;;;;;7.75;1.80;;;;;;;11.92;100.00;100503.81;5283815;28;20391;-72
2023/03/22 10:12:32;;;;;;;8.95;1.70;;;;;;;11.88;100.00;100502.38;5284141;28;20039;-73
2023/03/22 10:15:14;;;;;;;7.70;1.60;;;;;;;11.90;100.00;100509.28;5297901;28;20032;-72
2023/03/22 10:17:52;;;;;;;6.82;1.80;;;;;;;11.83;100.00;100505.44;5286421;28;20028;-71
2023/03/22 10:20:41;;;;;;;7.40;1.90;;;;;;;11.83;100.00;100518.81;5294947;28;20062;-72
2023/03/22 10:23:23;;;;;;;8.30;2.25;;;;;;;11.81;100.00;100519.91;5290246;28;20024;-72
2023/03/22 10:25:56;;;;;;;9.60;2.00;;;;;;;11.73;100.00;100526.75;5288673;28;20024;-72
2023/03/22 10:28:35;;;;;;;7.20;1.77;;;;;;;11.63;100.00;100530.38;5286430;28;20048;-72
2023/03/22 10:31:14;;;;;;;8.85;2.13;;;;;;;11.58;100.00;100534.28;5286949;28;20043;-72
2023/03/22 10:34:04;;;;;;;9.80;2.60;;;;;;;11.48;100.00;100529.84;5278411;28;20433;-72
2023/03/22 10:36:39;;;;;;;10.27;2.30;;;;;;;11.38;100.00;100535.97;5285020;28;20031;-72
2023/03/22 10:39:30;;;;;;;6.43;2.13;;;;;;;11.32;100.00;100531.16;5291142;28;20071;-73
2023/03/22 10:42:07;;;;;;;9.90;2.20;;;;;;;11.23;100.00;100537.28;5286421;28;20032;-72
2023/03/22 10:44:59;;;;;;;9.38;2.70;;;;;;;11.21;100.00;100536.56;5279877;28;20448;-71
2023/03/22 10:47:44;;;;;;;8.77;2.30;;;;;;;11.15;100.00;100537.91;5287059;28;20046;-71
2023/03/22 10:50:21;;;;;;;7.25;2.10;;;;;;;11.12;100.00;100535.53;5290025;28;20029;-71
2023/03/22 10:53:10;;;;;;;7.93;2.42;;;;;;;11.13;100.00;100534.53;5286850;28;20035;-71
2023/03/22 10:55:42;;;;;;;6.53;2.22;;;;;;;11.14;100.00;100533.56;5291561;28;20035;-71
2023/03/22 10:58:18;;;;;;;9.00;2.30;;;;;;;11.08;100.00;100525.22;5289600;28;20028;-71
2023/03/22 11:00:56;;;;;;;13.20;2.42;;;;;;;11.08;100.00;100526.06;5286465;28;20024;-70
2023/03/22 11:03:33;;;;;;;11.35;2.88;;;;;;;11.06;100.00;100529.84;5279921;28;20529;-70
2023/03/22 11:06:10;;;;;;;6.13;2.47;;;;;;;11.02;100.00;100529.25;5287878;28;20036;-70
2023/03/22 11:08:45;;;;;;;8.77;2.92;;;;;;;10.95;100.00;100528.91;5289337;28;20121;-70
2023/03/22 11:11:22;;;;;;;10.77;2.67;;;;;;;10.90;100.00;100525.78;5290635;28;20051;-70
2023/03/22 11:14:12;;;;;;;9.50;2.80;;;;;;;10.91;100.00;100532.81;5283324;28;20438;-70
2023/03/22 11:16:56;;;;;;;7.28;2.60;;;;;;;10.92;100.00;100525.66;5292292;28;20127;-70
2023/03/22 11:19:31;;;;;;;;;;;;;;;11.01;100.00;100524.03;5297213;28;20488;-70
2023/03/22 11:22:21;;;;;;;9.65;2.60;;;;;;;10.99;100.00;100522.34;5279743;28;19916;-70
2023/03/22 11:24:55;;;;;;;7.38;2.65;;;;;;;11.06;100.00;100514.66;5290612;28;20069;-70
2023/03/22 11:27:28;;;;;;;8.15;3.08;;;;;;;11.08;100.00;100514.53;5282115;28;20505;-70
2023/03/22 11:30:21;;;;;;;9.18;2.85;;;;;;;11.14;100.00;100517.56;5296327;28;20016;-70
2023/03/22 11:32:59;;;;;;;8.65;2.60;;;;;;;11.20;100.00;100524.19;5285464;28;20028;-70
2023/03/22 11:35:31;;;;;;;9.15;2.58;;;;;;;11.17;100.00;100517.28;5284514;28;20036;-70
2023/03/22 11:38:03;;;;;;;8.40;2.78;;;;;;;11.21;100.00;100511.69;5287154;28;20417;-70
2023/03/22 11:40:35;;;;;;;7.40;2.50;;;;;;;11.30;100.00;100511.75;5284978;28;20039;-70
2023/03/22 11:43:15;;;;;;;7.90;2.40;;;;;;;11.32;100.00;100503.63;5289808;28;20123;-70
2023/03/22 11:45:50;;;;;;;9.43;2.95;;;;;;;11.36;100.00;100513.06;5282187;28;20062;-70
2023/03/22 11:48:24;;;;;;;6.53;2.08;;;;;;;11.37;100.00;100504.03;5284310;28;20500;-70
2023/03/22 11:51:06;;;;;;;;;;;;;;;11.49;100.00;100502.19;5283328;28;20031;-70
2023/03/22 11:53:41;;;;;;;7.03;1.88;;;;;;;11.53;100.00;100515.13;5293575;28;19916;-70